sensor_id;sensor_type;location;lat;lon;timestamp;temperature;humidity
8563;DHT22;16392;52.508;13.468;2023-05-19T00:01:47;9.40;1.00
8563;DHT22;16392;52.508;13.468;2023-05-19T00:04:14;9.40;1.00
8563;DHT22;16392;52.508;13.468;2023-05-19T00:06:41;9.40;1.00
8563;DHT22;16392;52.508;13.468;2023-05-19T00:09:09;9.30;38.10
8563;DHT22;16392;52.508;13.468;2023-05-19T00:11:36;9.20;99.90
8563;DHT22;16392;52.508;13.468;2023-05-19T00:14:05;9.20;99.90
8563;DHT22;16392;52.508;13.468;2023-05-19T00:16:32;9.30;27.30
8563;DHT22;16392;52.508;13.468;2023-05-19T00:18:59;9.20;24.80
8563;DHT22;16392;52.508;13.468;2023-05-19T00:21:27;9.20;84.60
8563;DHT22;16392;52.508;13.468;2023-05-19T00:23:53;9.20;93.10
8563;DHT22;16392;52.508;13.468;2023-05-19T00:26:20;9.00;99.90
8563;DHT22;16392;52.508;13.468;2023-05-19T00:28:47;9.00;99.90
8563;DHT22;16392;52.508;13.468;2023-05-19T00:31:15;8.90;1.00
8563;DHT22;16392;52.508;13.468;2023-05-19T00:33:42;8.90;1.00
8563;DHT22;16392;52.508;13.468;2023-05-19T00:36:08;8.90;1.00
8563;DHT22;16392;52.508;13.468;2023-05-19T00:38:35;8.90;1.00
8563;DHT22;16392;52.508;13.468;2023-05-19T00:41:03;8.90;1.00
8563;DHT22;16392;52.508;13.468;2023-05-19T00:43:29;8.90;1.00
8563;DHT22;16392;52.508;13.468;2023-05-19T00:45:58;8.80;1.00
8563;DHT22;16392;52.508;13.468;2023-05-19T00:48:26;8.80;1.00
8563;DHT22;16392;52.508;13.468;2023-05-19T00:50:54;8.80;26.30
8563;DHT22;16392;52.508;13.468;2023-05-19T00:53:26;8.80;40.00
8563;DHT22;16392;52.508;13.468;2023-05-19T00:55:53;8.80;91.50
8563;DHT22;16392;52.508;13.468;2023-05-19T00:58:20;8.80;1.00
8563;DHT22;16392;52.508;13.468;2023-05-19T01:00:48;8.70;45.60
8563;DHT22;16392;52.508;13.468;2023-05-19T01:03:15;8.70;99.10
8563;DHT22;16392;52.508;13.468;2023-05-19T01:05:46;8.70;99.90
8563;DHT22;16392;52.508;13.468;2023-05-19T01:08:14;8.60;99.90
8563;DHT22;16392;52.508;13.468;2023-05-19T01:10:40;8.60;1.00
8563;DHT22;16392;52.508;13.468;2023-05-19T01:13:07;8.60;1.00
8563;DHT22;16392;52.508;13.468;2023-05-19T01:15:35;8.70;1.00
8563;DHT22;16392;52.508;13.468;2023-05-19T01:18:07;8.70;99.90
8563;DHT22;16392;52.508;13.468;2023-05-19T01:20:37;8.60;99.90
8563;DHT22;16392;52.508;13.468;2023-05-19T01:23:11;8.60;1.00
8563;DHT22;16392;52.508;13.468;2023-05-19T01:25:55;8.60;1.00
8563;DHT22;16392;52.508;13.468;2023-05-19T01:28:29;8.60;1.00
8563;DHT22;16392;52.508;13.468;2023-05-19T01:30:59;8.60;1.00
8563;DHT22;16392;52.508;13.468;2023-05-19T01:33:26;8.50;1.00
8563;DHT22;16392;52.508;13.468;2023-05-19T01:35:54;8.40;1.00
8563;DHT22;16392;52.508;13.468;2023-05-19T01:38:21;8.50;10.40
8563;DHT22;16392;52.508;13.468;2023-05-19T01:40:48;8.40;99.90
8563;DHT22;16392;52.508;13.468;2023-05-19T01:43:16;8.40;99.90
8563;DHT22;16392;52.508;13.468;2023-05-19T01:45:43;8.30;1.00
8563;DHT22;16392;52.508;13.468;2023-05-19T01:48:11;8.20;99.90
8563;DHT22;16392;52.508;13.468;2023-05-19T01:50:38;8.20;17.10
8563;DHT22;16392;52.508;13.468;2023-05-19T01:53:04;8.30;99.90
8563;DHT22;16392;52.508;13.468;2023-05-19T01:55:31;8.30;99.90
8563;DHT22;16392;52.508;13.468;2023-05-19T01:58:00;8.30;99.90
8563;DHT22;16392;52.508;13.468;2023-05-19T02:00:30;8.40;1.00
8563;DHT22;16392;52.508;13.468;2023-05-19T02:03:03;8.40;1.00
8563;DHT22;16392;52.508;13.468;2023-05-19T02:05:33;8.30;1.00
8563;DHT22;16392;52.508;13.468;2023-05-19T02:08:05;8.20;1.00
8563;DHT22;16392;52.508;13.468;2023-05-19T02:10:36;8.20;1.00
8563;DHT22;16392;52.508;13.468;2023-05-19T02:13:03;8.20;1.00
8563;DHT22;16392;52.508;13.468;2023-05-19T02:15:33;8.20;1.00
8563;DHT22;16392;52.508;13.468;2023-05-19T02:18:03;8.20;1.00
8563;DHT22;16392;52.508;13.468;2023-05-19T02:20:30;8.20;1.00
8563;DHT22;16392;52.508;13.468;2023-05-19T02:22:58;8.10;99.90
8563;DHT22;16392;52.508;13.468;2023-05-19T02:25:25;8.10;99.90
8563;DHT22;16392;52.508;13.468;2023-05-19T02:27:51;8.10;99.90
8563;DHT22;16392;52.508;13.468;2023-05-19T02:30:18;8.10;99.90
8563;DHT22;16392;52.508;13.468;2023-05-19T02:32:44;8.10;1.00
8563;DHT22;16392;52.508;13.468;2023-05-19T02:35:11;8.00;1.00
8563;DHT22;16392;52.508;13.468;2023-05-19T02:37:37;8.00;99.90
8563;DHT22;16392;52.508;13.468;2023-05-19T02:40:06;8.00;99.90
8563;DHT22;16392;52.508;13.468;2023-05-19T02:42:33;8.10;99.90
8563;DHT22;16392;52.508;13.468;2023-05-19T02:45:00;8.10;1.00
8563;DHT22;16392;52.508;13.468;2023-05-19T02:47:26;8.20;1.00
8563;DHT22;16392;52.508;13.468;2023-05-19T02:49:52;8.20;1.00
8563;DHT22;16392;52.508;13.468;2023-05-19T02:52:19;8.30;99.90
8563;DHT22;16392;52.508;13.468;2023-05-19T02:54:45;8.20;99.90
8563;DHT22;16392;52.508;13.468;2023-05-19T02:57:13;8.30;65.50
8563;DHT22;16392;52.508;13.468;2023-05-19T02:59:40;8.30;1.00
8563;DHT22;16392;52.508;13.468;2023-05-19T03:02:07;8.40;99.90
8563;DHT22;16392;52.508;13.468;2023-05-19T03:04:33;8.40;1.00
8563;DHT22;16392;52.508;13.468;2023-05-19T03:07:05;8.40;99.90
8563;DHT22;16392;52.508;13.468;2023-05-19T03:09:34;8.40;99.90
8563;DHT22;16392;52.508;13.468;2023-05-19T03:12:00;8.50;29.50
8563;DHT22;16392;52.508;13.468;2023-05-19T03:14:30;8.40;1.00
8563;DHT22;16392;52.508;13.468;2023-05-19T03:16:57;8.40;1.00
8563;DHT22;16392;52.508;13.468;2023-05-19T03:19:24;8.40;1.00
8563;DHT22;16392;52.508;13.468;2023-05-19T03:21:51;8.30;1.00
8563;DHT22;16392;52.508;13.468;2023-05-19T03:24:17;8.20;95.00
8563;DHT22;16392;52.508;13.468;2023-05-19T03:26:44;8.20;99.90
8563;DHT22;16392;52.508;13.468;2023-05-19T03:29:11;8.30;99.90
8563;DHT22;16392;52.508;13.468;2023-05-19T03:31:38;8.30;99.90
8563;DHT22;16392;52.508;13.468;2023-05-19T03:34:05;8.30;99.90
8563;DHT22;16392;52.508;13.468;2023-05-19T03:36:31;8.30;1.00
8563;DHT22;16392;52.508;13.468;2023-05-19T03:39:04;8.40;99.90
8563;DHT22;16392;52.508;13.468;2023-05-19T03:41:30;8.40;99.90
8563;DHT22;16392;52.508;13.468;2023-05-19T03:43:57;8.50;99.90
8563;DHT22;16392;52.508;13.468;2023-05-19T03:46:23;8.60;1.00
8563;DHT22;16392;52.508;13.468;2023-05-19T03:48:51;8.70;1.00
8563;DHT22;16392;52.508;13.468;2023-05-19T03:51:18;8.80;1.00
8563;DHT22;16392;52.508;13.468;2023-05-19T03:53:46;8.90;1.00
8563;DHT22;16392;52.508;13.468;2023-05-19T03:56:13;9.00;99.90
8563;DHT22;16392;52.508;13.468;2023-05-19T03:58:42;9.10;99.90
8563;DHT22;16392;52.508;13.468;2023-05-19T04:01:09;9.30;1.00
8563;DHT22;16392;52.508;13.468;2023-05-19T04:03:35;9.50;1.00
8563;DHT22;16392;52.508;13.468;2023-05-19T04:06:03;9.80;99.90
8563;DHT22;16392;52.508;13.468;2023-05-19T04:08:30;10.00;1.00
8563;DHT22;16392;52.508;13.468;2023-05-19T04:10:57;10.10;1.00
8563;DHT22;16392;52.508;13.468;2023-05-19T04:13:23;10.20;99.90
8563;DHT22;16392;52.508;13.468;2023-05-19T04:15:50;10.40;99.90
8563;DHT22;16392;52.508;13.468;2023-05-19T04:18:16;10.60;99.90
8563;DHT22;16392;52.508;13.468;2023-05-19T04:20:43;10.70;99.90
8563;DHT22;16392;52.508;13.468;2023-05-19T04:23:11;10.70;66.60
8563;DHT22;16392;52.508;13.468;2023-05-19T04:25:37;10.70;77.90
8563;DHT22;16392;52.508;13.468;2023-05-19T04:28:05;10.70;92.50
8563;DHT22;16392;52.508;13.468;2023-05-19T04:30:31;10.70;97.10
8563;DHT22;16392;52.508;13.468;2023-05-19T04:32:58;10.70;99.90
8563;DHT22;16392;52.508;13.468;2023-05-19T04:35:25;10.60;99.90
8563;DHT22;16392;52.508;13.468;2023-05-19T04:37:51;10.50;99.90
8563;DHT22;16392;52.508;13.468;2023-05-19T04:40:20;10.50;99.90
8563;DHT22;16392;52.508;13.468;2023-05-19T04:42:47;10.50;99.90
8563;DHT22;16392;52.508;13.468;2023-05-19T04:45:16;10.60;99.90
8563;DHT22;16392;52.508;13.468;2023-05-19T04:47:43;10.70;99.90
8563;DHT22;16392;52.508;13.468;2023-05-19T04:50:11;10.80;99.90
8563;DHT22;16392;52.508;13.468;2023-05-19T04:52:38;11.00;85.70
8563;DHT22;16392;52.508;13.468;2023-05-19T04:55:06;11.20;1.00
8563;DHT22;16392;52.508;13.468;2023-05-19T04:57:34;11.30;1.00
8563;DHT22;16392;52.508;13.468;2023-05-19T05:00:01;11.40;1.00
8563;DHT22;16392;52.508;13.468;2023-05-19T05:02:33;11.60;1.00
8563;DHT22;16392;52.508;13.468;2023-05-19T05:04:59;11.50;1.00
8563;DHT22;16392;52.508;13.468;2023-05-19T05:07:26;11.50;1.00
8563;DHT22;16392;52.508;13.468;2023-05-19T05:09:52;11.60;1.00
8563;DHT22;16392;52.508;13.468;2023-05-19T05:12:19;11.80;1.00
8563;DHT22;16392;52.508;13.468;2023-05-19T05:14:48;12.00;99.90
8563;DHT22;16392;52.508;13.468;2023-05-19T05:17:15;12.30;99.90
8563;DHT22;16392;52.508;13.468;2023-05-19T05:19:41;12.40;99.90
8563;DHT22;16392;52.508;13.468;2023-05-19T05:22:08;12.40;99.90
8563;DHT22;16392;52.508;13.468;2023-05-19T05:24:35;12.30;99.90
8563;DHT22;16392;52.508;13.468;2023-05-19T05:27:01;12.10;99.90
8563;DHT22;16392;52.508;13.468;2023-05-19T05:29:28;11.80;99.90
8563;DHT22;16392;52.508;13.468;2023-05-19T05:31:56;11.70;1.00
8563;DHT22;16392;52.508;13.468;2023-05-19T05:34:23;11.70;1.00
8563;DHT22;16392;52.508;13.468;2023-05-19T05:36:50;11.70;1.00
8563;DHT22;16392;52.508;13.468;2023-05-19T05:39:16;11.80;1.00
8563;DHT22;16392;52.508;13.468;2023-05-19T05:41:43;11.90;1.00
8563;DHT22;16392;52.508;13.468;2023-05-19T05:44:09;12.20;1.00
8563;DHT22;16392;52.508;13.468;2023-05-19T05:46:36;12.70;99.90
8563;DHT22;16392;52.508;13.468;2023-05-19T05:49:04;13.10;9.70
8563;DHT22;16392;52.508;13.468;2023-05-19T05:51:31;13.40;1.00
8563;DHT22;16392;52.508;13.468;2023-05-19T05:53:58;13.80;1.00
8563;DHT22;16392;52.508;13.468;2023-05-19T05:56:25;13.60;99.90
8563;DHT22;16392;52.508;13.468;2023-05-19T05:58:51;13.30;1.00
8563;DHT22;16392;52.508;13.468;2023-05-19T06:01:18;13.10;1.00
8563;DHT22;16392;52.508;13.468;2023-05-19T06:03:45;13.30;1.00
8563;DHT22;16392;52.508;13.468;2023-05-19T06:06:13;13.50;1.00
8563;DHT22;16392;52.508;13.468;2023-05-19T06:08:39;13.80;99.90
8563;DHT22;16392;52.508;13.468;2023-05-19T06:11:05;14.30;99.90
8563;DHT22;16392;52.508;13.468;2023-05-19T06:13:33;14.20;99.90
8563;DHT22;16392;52.508;13.468;2023-05-19T06:16:00;14.60;1.00
8563;DHT22;16392;52.508;13.468;2023-05-19T06:18:26;15.20;1.00
8563;DHT22;16392;52.508;13.468;2023-05-19T06:20:53;15.90;1.00
8563;DHT22;16392;52.508;13.468;2023-05-19T06:23:21;16.20;1.00
8563;DHT22;16392;52.508;13.468;2023-05-19T06:25:48;16.50;99.90
8563;DHT22;16392;52.508;13.468;2023-05-19T06:28:14;17.00;99.90
8563;DHT22;16392;52.508;13.468;2023-05-19T06:30:41;17.50;99.90
8563;DHT22;16392;52.508;13.468;2023-05-19T06:33:07;17.40;99.90
8563;DHT22;16392;52.508;13.468;2023-05-19T06:35:34;17.60;99.90
8563;DHT22;16392;52.508;13.468;2023-05-19T06:38:00;17.50;99.90
8563;DHT22;16392;52.508;13.468;2023-05-19T06:40:28;18.10;99.90
8563;DHT22;16392;52.508;13.468;2023-05-19T06:42:55;18.10;97.80
8563;DHT22;16392;52.508;13.468;2023-05-19T06:45:22;18.10;78.40
8563;DHT22;16392;52.508;13.468;2023-05-19T06:47:49;18.40;27.40
8563;DHT22;16392;52.508;13.468;2023-05-19T06:50:15;17.90;42.10
8563;DHT22;16392;52.508;13.468;2023-05-19T06:52:42;17.70;88.20
8563;DHT22;16392;52.508;13.468;2023-05-19T06:55:08;17.70;78.70
8563;DHT22;16392;52.508;13.468;2023-05-19T06:57:36;18.10;41.20
8563;DHT22;16392;52.508;13.468;2023-05-19T07:00:03;18.30;7.70
8563;DHT22;16392;52.508;13.468;2023-05-19T07:02:32;18.30;19.00
8563;DHT22;16392;52.508;13.468;2023-05-19T07:04:59;18.20;19.20
8563;DHT22;16392;52.508;13.468;2023-05-19T07:07:25;18.00;16.50
8563;DHT22;16392;52.508;13.468;2023-05-19T07:09:52;17.90;34.30
8563;DHT22;16392;52.508;13.468;2023-05-19T07:12:18;18.20;24.40
8563;DHT22;16392;52.508;13.468;2023-05-19T07:14:46;18.10;26.30
8563;DHT22;16392;52.508;13.468;2023-05-19T07:17:13;18.30;33.60
8563;DHT22;16392;52.508;13.468;2023-05-19T07:19:40;18.70;1.00
8563;DHT22;16392;52.508;13.468;2023-05-19T07:22:06;18.40;1.00
8563;DHT22;16392;52.508;13.468;2023-05-19T07:24:33;18.10;23.20
8563;DHT22;16392;52.508;13.468;2023-05-19T07:27:00;18.30;14.60
8563;DHT22;16392;52.508;13.468;2023-05-19T07:29:26;18.30;4.50
8563;DHT22;16392;52.508;13.468;2023-05-19T07:31:54;17.70;93.50
8563;DHT22;16392;52.508;13.468;2023-05-19T07:34:22;18.20;40.00
8563;DHT22;16392;52.508;13.468;2023-05-19T07:36:48;18.60;11.20
8563;DHT22;16392;52.508;13.468;2023-05-19T07:39:15;19.20;1.00
8563;DHT22;16392;52.508;13.468;2023-05-19T07:41:42;19.60;1.00
8563;DHT22;16392;52.508;13.468;2023-05-19T07:44:08;19.60;1.00
8563;DHT22;16392;52.508;13.468;2023-05-19T07:46:35;20.50;1.00
8563;DHT22;16392;52.508;13.468;2023-05-19T07:49:03;21.10;1.00
8563;DHT22;16392;52.508;13.468;2023-05-19T07:51:30;21.30;1.00
8563;DHT22;16392;52.508;13.468;2023-05-19T07:53:57;21.20;1.00
8563;DHT22;16392;52.508;13.468;2023-05-19T07:56:24;21.60;1.00
8563;DHT22;16392;52.508;13.468;2023-05-19T07:58:50;21.20;1.00
8563;DHT22;16392;52.508;13.468;2023-05-19T08:01:17;21.20;1.00
8563;DHT22;16392;52.508;13.468;2023-05-19T08:03:43;21.20;1.00
8563;DHT22;16392;52.508;13.468;2023-05-19T08:06:11;21.60;1.00
8563;DHT22;16392;52.508;13.468;2023-05-19T08:08:38;22.20;1.00
8563;DHT22;16392;52.508;13.468;2023-05-19T08:11:05;21.90;1.00
8563;DHT22;16392;52.508;13.468;2023-05-19T08:13:32;21.40;1.00
8563;DHT22;16392;52.508;13.468;2023-05-19T08:15:58;21.20;1.00
8563;DHT22;16392;52.508;13.468;2023-05-19T08:18:25;21.30;1.00
8563;DHT22;16392;52.508;13.468;2023-05-19T08:20:52;21.60;1.00
8563;DHT22;16392;52.508;13.468;2023-05-19T08:23:20;21.00;1.00
8563;DHT22;16392;52.508;13.468;2023-05-19T08:25:46;20.50;1.00
8563;DHT22;16392;52.508;13.468;2023-05-19T08:28:13;20.20;1.00
8563;DHT22;16392;52.508;13.468;2023-05-19T08:30:40;20.40;1.00
8563;DHT22;16392;52.508;13.468;2023-05-19T08:33:06;20.80;1.00
8563;DHT22;16392;52.508;13.468;2023-05-19T08:35:33;21.00;1.00
8563;DHT22;16392;52.508;13.468;2023-05-19T08:38:00;21.20;1.00
8563;DHT22;16392;52.508;13.468;2023-05-19T08:40:28;20.70;1.00
8563;DHT22;16392;52.508;13.468;2023-05-19T08:42:55;20.50;1.00
8563;DHT22;16392;52.508;13.468;2023-05-19T08:45:22;20.90;1.00
8563;DHT22;16392;52.508;13.468;2023-05-19T08:47:49;20.30;1.00
8563;DHT22;16392;52.508;13.468;2023-05-19T08:50:22;19.60;1.00
8563;DHT22;16392;52.508;13.468;2023-05-19T08:52:50;19.50;1.00
8563;DHT22;16392;52.508;13.468;2023-05-19T08:55:17;19.20;1.00
8563;DHT22;16392;52.508;13.468;2023-05-19T08:57:51;19.60;1.00
8563;DHT22;16392;52.508;13.468;2023-05-19T09:00:18;19.70;1.00
8563;DHT22;16392;52.508;13.468;2023-05-19T09:02:46;19.80;1.00
8563;DHT22;16392;52.508;13.468;2023-05-19T09:05:13;19.60;1.00
8563;DHT22;16392;52.508;13.468;2023-05-19T09:07:40;20.00;1.00
8563;DHT22;16392;52.508;13.468;2023-05-19T09:10:08;20.10;1.00
8563;DHT22;16392;52.508;13.468;2023-05-19T09:12:38;19.50;1.00
8563;DHT22;16392;52.508;13.468;2023-05-19T09:15:07;19.60;1.00
8563;DHT22;16392;52.508;13.468;2023-05-19T09:17:34;19.40;1.00
8563;DHT22;16392;52.508;13.468;2023-05-19T09:20:00;20.10;1.00
8563;DHT22;16392;52.508;13.468;2023-05-19T09:22:27;20.80;1.00
8563;DHT22;16392;52.508;13.468;2023-05-19T09:24:55;20.40;1.00
8563;DHT22;16392;52.508;13.468;2023-05-19T09:27:21;19.50;1.00
8563;DHT22;16392;52.508;13.468;2023-05-19T09:29:48;18.90;1.00
8563;DHT22;16392;52.508;13.468;2023-05-19T09:32:24;19.50;1.00
8563;DHT22;16392;52.508;13.468;2023-05-19T09:34:51;19.50;1.00
8563;DHT22;16392;52.508;13.468;2023-05-19T09:37:20;19.20;1.00
8563;DHT22;16392;52.508;13.468;2023-05-19T09:39:47;19.50;1.00
8563;DHT22;16392;52.508;13.468;2023-05-19T09:42:17;20.00;1.00
8563;DHT22;16392;52.508;13.468;2023-05-19T09:44:49;20.20;1.00
8563;DHT22;16392;52.508;13.468;2023-05-19T09:47:15;20.10;1.00
8563;DHT22;16392;52.508;13.468;2023-05-19T09:49:45;20.30;1.00
8563;DHT22;16392;52.508;13.468;2023-05-19T09:52:13;20.70;1.00
8563;DHT22;16392;52.508;13.468;2023-05-19T09:54:41;21.00;1.00
8563;DHT22;16392;52.508;13.468;2023-05-19T09:57:08;21.20;1.00
8563;DHT22;16392;52.508;13.468;2023-05-19T09:59:34;21.20;1.00
8563;DHT22;16392;52.508;13.468;2023-05-19T10:02:03;20.50;1.00
8563;DHT22;16392;52.508;13.468;2023-05-19T10:04:30;19.80;1.00
8563;DHT22;16392;52.508;13.468;2023-05-19T10:06:58;19.50;1.00
8563;DHT22;16392;52.508;13.468;2023-05-19T10:09:26;19.50;1.00
8563;DHT22;16392;52.508;13.468;2023-05-19T10:11:53;19.30;1.00
8563;DHT22;16392;52.508;13.468;2023-05-19T10:14:21;19.60;1.00
8563;DHT22;16392;52.508;13.468;2023-05-19T10:16:48;19.40;1.00
8563;DHT22;16392;52.508;13.468;2023-05-19T10:19:15;19.70;1.00
8563;DHT22;16392;52.508;13.468;2023-05-19T10:21:43;19.90;1.00
8563;DHT22;16392;52.508;13.468;2023-05-19T10:24:11;20.00;1.00
8563;DHT22;16392;52.508;13.468;2023-05-19T10:26:37;20.00;1.00
8563;DHT22;16392;52.508;13.468;2023-05-19T10:29:05;20.30;1.00
8563;DHT22;16392;52.508;13.468;2023-05-19T10:31:32;19.90;1.00
8563;DHT22;16392;52.508;13.468;2023-05-19T10:34:04;19.90;1.00
8563;DHT22;16392;52.508;13.468;2023-05-19T10:36:38;19.90;1.00
8563;DHT22;16392;52.508;13.468;2023-05-19T10:39:15;19.50;1.00
8563;DHT22;16392;52.508;13.468;2023-05-19T10:41:45;19.30;1.00
8563;DHT22;16392;52.508;13.468;2023-05-19T10:44:13;19.70;1.00
8563;DHT22;16392;52.508;13.468;2023-05-19T10:46:45;19.60;1.00
8563;DHT22;16392;52.508;13.468;2023-05-19T10:49:18;19.60;1.00
8563;DHT22;16392;52.508;13.468;2023-05-19T10:51:45;19.70;1.00
8563;DHT22;16392;52.508;13.468;2023-05-19T10:54:13;19.30;1.00
8563;DHT22;16392;52.508;13.468;2023-05-19T10:56:41;19.20;1.00
8563;DHT22;16392;52.508;13.468;2023-05-19T11:01:52;19.40;1.00
8563;DHT22;16392;52.508;13.468;2023-05-19T11:04:19;19.90;1.00
8563;DHT22;16392;52.508;13.468;2023-05-19T11:07:03;19.80;1.00
8563;DHT22;16392;52.508;13.468;2023-05-19T11:09:32;20.20;1.00
8563;DHT22;16392;52.508;13.468;2023-05-19T11:12:05;20.20;1.00
8563;DHT22;16392;52.508;13.468;2023-05-19T11:14:33;19.60;1.00
8563;DHT22;16392;52.508;13.468;2023-05-19T11:17:00;19.50;1.00
8563;DHT22;16392;52.508;13.468;2023-05-19T11:19:27;19.40;1.00
8563;DHT22;16392;52.508;13.468;2023-05-19T11:21:53;19.60;1.00
8563;DHT22;16392;52.508;13.468;2023-05-19T11:24:35;19.80;1.00
8563;DHT22;16392;52.508;13.468;2023-05-19T11:27:21;20.10;1.00
8563;DHT22;16392;52.508;13.468;2023-05-19T11:29:49;20.10;1.00
8563;DHT22;16392;52.508;13.468;2023-05-19T11:32:17;19.70;1.00
8563;DHT22;16392;52.508;13.468;2023-05-19T11:34:43;19.70;1.00
8563;DHT22;16392;52.508;13.468;2023-05-19T11:37:10;20.00;1.00
8563;DHT22;16392;52.508;13.468;2023-05-19T11:39:39;20.00;1.00
8563;DHT22;16392;52.508;13.468;2023-05-19T11:42:07;20.00;1.00
8563;DHT22;16392;52.508;13.468;2023-05-19T11:44:34;19.90;1.00
8563;DHT22;16392;52.508;13.468;2023-05-19T11:47:00;19.80;1.00
8563;DHT22;16392;52.508;13.468;2023-05-19T11:49:27;20.50;1.00
8563;DHT22;16392;52.508;13.468;2023-05-19T11:51:54;20.80;1.00
8563;DHT22;16392;52.508;13.468;2023-05-19T11:54:27;20.70;1.00
8563;DHT22;16392;52.508;13.468;2023-05-19T11:56:55;19.90;1.00
8563;DHT22;16392;52.508;13.468;2023-05-19T11:59:28;19.70;1.00
8563;DHT22;16392;52.508;13.468;2023-05-19T12:01:54;19.60;1.00
8563;DHT22;16392;52.508;13.468;2023-05-19T12:04:21;19.70;1.00
8563;DHT22;16392;52.508;13.468;2023-05-19T12:06:47;19.90;1.00
8563;DHT22;16392;52.508;13.468;2023-05-19T12:09:14;20.20;1.00
8563;DHT22;16392;52.508;13.468;2023-05-19T12:11:41;19.90;1.00
8563;DHT22;16392;52.508;13.468;2023-05-19T12:14:09;19.60;1.00
8563;DHT22;16392;52.508;13.468;2023-05-19T12:16:37;19.70;1.00
8563;DHT22;16392;52.508;13.468;2023-05-19T12:19:03;20.20;1.00
8563;DHT22;16392;52.508;13.468;2023-05-19T12:21:30;20.80;1.00
8563;DHT22;16392;52.508;13.468;2023-05-19T12:24:00;21.60;1.00
8563;DHT22;16392;52.508;13.468;2023-05-19T12:26:28;21.20;1.00
8563;DHT22;16392;52.508;13.468;2023-05-19T12:28:55;20.70;1.00
8563;DHT22;16392;52.508;13.468;2023-05-19T12:31:24;20.40;1.00
8563;DHT22;16392;52.508;13.468;2023-05-19T12:33:51;20.70;1.00
8563;DHT22;16392;52.508;13.468;2023-05-19T12:36:17;20.80;1.00
8563;DHT22;16392;52.508;13.468;2023-05-19T12:38:44;20.30;1.00
8563;DHT22;16392;52.508;13.468;2023-05-19T12:41:12;20.10;1.00
8563;DHT22;16392;52.508;13.468;2023-05-19T12:43:39;19.40;1.00
8563;DHT22;16392;52.508;13.468;2023-05-19T12:46:10;19.40;1.00
8563;DHT22;16392;52.508;13.468;2023-05-19T12:48:42;19.80;1.00
8563;DHT22;16392;52.508;13.468;2023-05-19T12:51:08;19.60;1.00
8563;DHT22;16392;52.508;13.468;2023-05-19T12:53:35;19.80;1.00
8563;DHT22;16392;52.508;13.468;2023-05-19T12:56:08;19.30;1.00
8563;DHT22;16392;52.508;13.468;2023-05-19T12:58:36;19.90;1.00
8563;DHT22;16392;52.508;13.468;2023-05-19T13:01:03;20.50;1.00
8563;DHT22;16392;52.508;13.468;2023-05-19T13:03:29;21.00;1.00
8563;DHT22;16392;52.508;13.468;2023-05-19T13:05:57;21.10;1.00
8563;DHT22;16392;52.508;13.468;2023-05-19T13:08:24;21.00;1.00
8563;DHT22;16392;52.508;13.468;2023-05-19T13:10:52;20.70;1.00
8563;DHT22;16392;52.508;13.468;2023-05-19T13:13:18;20.70;1.00
8563;DHT22;16392;52.508;13.468;2023-05-19T13:15:46;20.80;1.00
8563;DHT22;16392;52.508;13.468;2023-05-19T13:18:13;20.90;1.00
8563;DHT22;16392;52.508;13.468;2023-05-19T13:20:40;20.80;1.00
8563;DHT22;16392;52.508;13.468;2023-05-19T13:23:09;20.80;1.00
8563;DHT22;16392;52.508;13.468;2023-05-19T13:25:36;20.30;1.00
8563;DHT22;16392;52.508;13.468;2023-05-19T13:28:02;19.80;1.00
8563;DHT22;16392;52.508;13.468;2023-05-19T13:30:30;19.60;1.00
8563;DHT22;16392;52.508;13.468;2023-05-19T13:32:56;19.60;1.00
8563;DHT22;16392;52.508;13.468;2023-05-19T13:35:23;19.50;1.00
8563;DHT22;16392;52.508;13.468;2023-05-19T13:37:50;19.40;1.00
8563;DHT22;16392;52.508;13.468;2023-05-19T13:40:18;19.30;1.00
8563;DHT22;16392;52.508;13.468;2023-05-19T13:42:44;19.30;1.00
8563;DHT22;16392;52.508;13.468;2023-05-19T13:45:11;19.10;1.00
8563;DHT22;16392;52.508;13.468;2023-05-19T13:47:37;19.20;1.00
8563;DHT22;16392;52.508;13.468;2023-05-19T13:50:04;19.30;1.00
8563;DHT22;16392;52.508;13.468;2023-05-19T13:52:31;19.00;1.00
8563;DHT22;16392;52.508;13.468;2023-05-19T13:54:58;19.10;1.00
8563;DHT22;16392;52.508;13.468;2023-05-19T13:57:25;19.00;1.00
8563;DHT22;16392;52.508;13.468;2023-05-19T13:59:52;19.10;1.00
8563;DHT22;16392;52.508;13.468;2023-05-19T14:02:19;19.10;1.00
8563;DHT22;16392;52.508;13.468;2023-05-19T14:04:45;19.30;1.00
8563;DHT22;16392;52.508;13.468;2023-05-19T14:07:12;18.80;1.00
8563;DHT22;16392;52.508;13.468;2023-05-19T14:09:39;18.80;1.00
8563;DHT22;16392;52.508;13.468;2023-05-19T14:12:05;18.80;1.00
8563;DHT22;16392;52.508;13.468;2023-05-19T14:14:35;18.80;1.00
8563;DHT22;16392;52.508;13.468;2023-05-19T14:17:02;18.80;1.00
8563;DHT22;16392;52.508;13.468;2023-05-19T14:19:29;19.00;1.00
8563;DHT22;16392;52.508;13.468;2023-05-19T14:21:55;19.10;1.00
8563;DHT22;16392;52.508;13.468;2023-05-19T14:24:22;19.30;1.00
8563;DHT22;16392;52.508;13.468;2023-05-19T14:26:48;19.20;1.00
8563;DHT22;16392;52.508;13.468;2023-05-19T14:29:15;19.20;1.00
8563;DHT22;16392;52.508;13.468;2023-05-19T14:31:43;19.00;1.00
8563;DHT22;16392;52.508;13.468;2023-05-19T14:34:09;18.90;1.00
8563;DHT22;16392;52.508;13.468;2023-05-19T14:36:36;19.00;1.00
8563;DHT22;16392;52.508;13.468;2023-05-19T14:39:02;19.20;1.00
8563;DHT22;16392;52.508;13.468;2023-05-19T14:41:29;18.80;1.00
8563;DHT22;16392;52.508;13.468;2023-05-19T14:43:55;18.70;1.00
8563;DHT22;16392;52.508;13.468;2023-05-19T14:46:22;18.60;1.00
8563;DHT22;16392;52.508;13.468;2023-05-19T14:48:50;18.50;1.00
8563;DHT22;16392;52.508;13.468;2023-05-19T14:51:16;18.60;1.00
8563;DHT22;16392;52.508;13.468;2023-05-19T14:53:43;19.00;1.00
8563;DHT22;16392;52.508;13.468;2023-05-19T14:56:09;18.90;1.00
8563;DHT22;16392;52.508;13.468;2023-05-19T14:58:36;18.60;1.00
8563;DHT22;16392;52.508;13.468;2023-05-19T15:01:02;18.50;1.00
8563;DHT22;16392;52.508;13.468;2023-05-19T15:03:29;18.50;1.00
8563;DHT22;16392;52.508;13.468;2023-05-19T15:05:56;18.40;1.00
8563;DHT22;16392;52.508;13.468;2023-05-19T15:08:23;18.40;1.00
8563;DHT22;16392;52.508;13.468;2023-05-19T15:10:49;18.10;1.00
8563;DHT22;16392;52.508;13.468;2023-05-19T15:13:16;18.10;1.00
8563;DHT22;16392;52.508;13.468;2023-05-19T15:15:43;18.10;1.00
8563;DHT22;16392;52.508;13.468;2023-05-19T15:18:09;18.00;1.00
8563;DHT22;16392;52.508;13.468;2023-05-19T15:20:37;18.20;1.00
8563;DHT22;16392;52.508;13.468;2023-05-19T15:23:05;18.20;1.00
8563;DHT22;16392;52.508;13.468;2023-05-19T15:25:31;18.10;1.00
8563;DHT22;16392;52.508;13.468;2023-05-19T15:27:58;18.10;1.00
8563;DHT22;16392;52.508;13.468;2023-05-19T15:30:24;18.10;1.00
8563;DHT22;16392;52.508;13.468;2023-05-19T15:32:51;18.30;1.00
8563;DHT22;16392;52.508;13.468;2023-05-19T15:35:17;18.40;1.00
8563;DHT22;16392;52.508;13.468;2023-05-19T15:37:44;18.40;1.00
8563;DHT22;16392;52.508;13.468;2023-05-19T15:40:12;18.60;1.00
8563;DHT22;16392;52.508;13.468;2023-05-19T15:42:38;18.70;1.00
8563;DHT22;16392;52.508;13.468;2023-05-19T15:45:05;18.50;1.00
8563;DHT22;16392;52.508;13.468;2023-05-19T15:47:33;18.10;1.00
8563;DHT22;16392;52.508;13.468;2023-05-19T15:50:00;17.80;1.00